Yass Linton Hostel, New South Wales

7:31 AM AEST on July 26, 2016 (GMT +1000)
Yass | | Change Station

Elev 1804 ft 34.82 °S, 148.92 °E | Updated 15 seconds ago

Partly Cloudy
Partly Cloudy
42.6 °F
Feels Like 39 °F
N
6.0
Wind Variable Wind from West
Gusts 9.8 mph

Today
High -- | Low -- °F
--% Chance of Precip.
Yesterday
High -- | Low -- °F
Precip. -- in
Pressure 29.95 in
Visibility 6.2 miles
Clouds Few 1500 ft
Windchill 39 °F
Dew Point 38 °F
Humidity 82%
Rainfall 0.09 in
Snow Depth Not available.
7:03 AM 5:18 PM
Waning Gibbous, 62% visible
METAR YSCB 252100Z 31015KT 9999 FEW015 05/01 Q1014 FM2100 MOD/SEV TURB BLW 5000FT
Pressure 29.95 in
Visibility 6.2 miles
Clouds Few 1500 ft
Windchill 39 °F
Dew Point 38 °F
Humidity 82%
Rainfall 0.09 in
Snow Depth Not available.
7:03 AM 5:18 PM
Waning Gibbous, 62% visible
METAR YSCB 252100Z 31015KT 9999 FEW015 05/01 Q1014 FM2100 MOD/SEV TURB BLW 5000FT

10-Day Weather Forecast

Almanac

Astronomy

Jul. 26, 2016 Rise Set
Actual Time
Civil Twilight
Nautical Twilight
Astronomical Twilight
Moon
Length of Visible Light
Length of Day
Tomorrow will be .
, % of the Moon is Illuminated

Today's Extremes

Country Highs Country Lows

Community

WunderPhotos

Upload Photos

1,927,423 photos uploaded!

WunderBlog® & News

Nearby

Air Quality

  Air Quality AQ Index Pollutant
Not available.

Snow Depth

Station Depth Elevation

Earthquake Activity

City Distance Mag. Time & Date
Minimum magnitude displayed is 2.5.

Coastal Water Temperatures

Place Temperature

Stations

Nearby Weather Stations

Station Location Temp. Windchill Dew Point Humidity Wind Precip. Elev Updated Type